createdAt,value
2019-04-26T00:01:06.081Z,99868.64
2019-04-26T00:03:45.718Z,99880.61
2019-04-26T00:06:15.190Z,99877.36
2019-04-26T00:08:47.998Z,99862.12
2019-04-26T00:11:45.661Z,99846.03
2019-04-26T00:14:39.955Z,99850.09
2019-04-26T00:17:19.397Z,99849.47
2019-04-26T00:19:48.617Z,99869.80
2019-04-26T00:22:18.198Z,99880.84
2019-04-26T00:24:48.089Z,99870.95
2019-04-26T00:27:17.111Z,99883.47
2019-04-26T00:29:46.060Z,99889.16
2019-04-26T00:32:15.114Z,99863.72
2019-04-26T00:34:43.888Z,99850.23
2019-04-26T00:37:14.069Z,99852.69
2019-04-26T00:39:42.983Z,99869.22
2019-04-26T00:42:13.542Z,99872.83
2019-04-26T00:44:43.731Z,99889.16
2019-04-26T00:47:15.153Z,99900.16
2019-04-26T00:49:44.649Z,99900.16
2019-04-26T00:52:15.703Z,99915.95
2019-04-26T00:54:45.535Z,99910.30
2019-04-26T00:57:16.005Z,99924.39
2019-04-26T00:59:45.516Z,99925.85
2019-04-26T01:02:20.716Z,99912.75
2019-04-26T01:04:49.614Z,99896.91
2019-04-26T01:07:19.104Z,99905.77
2019-04-26T01:09:48.014Z,99916.59
2019-04-26T01:12:17.826Z,99923.08
2019-04-26T01:14:46.667Z,99920.83
2019-04-26T01:17:16.164Z,99918.97
2019-04-26T01:19:48.520Z,99915.05
2019-04-26T01:22:23.324Z,99909.89
2019-04-26T01:24:55.159Z,99896.72
2019-04-26T01:27:27.741Z,99886.92
2019-04-26T01:30:00.538Z,99888.08
2019-04-26T01:32:31.056Z,99885.89
2019-04-26T01:35:00.021Z,99898.16
2019-04-26T01:37:30.946Z,99916.11
2019-04-26T01:40:05.305Z,99926.66
2019-04-26T01:42:43.842Z,99921.70
2019-04-26T01:45:20.412Z,99909.13
2019-04-26T01:47:52.608Z,99899.44
2019-04-26T01:50:25.242Z,99915.61
2019-04-26T01:52:56.023Z,99924.89
2019-04-26T01:55:27.345Z,99921.17
2019-04-26T01:57:57.488Z,99925.50
2019-04-26T02:00:36.366Z,99919.00
2019-04-26T02:03:14.068Z,99907.88
2019-04-26T02:05:43.028Z,99921.87
2019-04-26T02:08:11.957Z,99921.87
2019-04-26T02:10:40.971Z,99924.63
2019-04-26T02:13:09.947Z,99941.66
2019-04-26T02:15:38.952Z,99956.27
2019-04-26T02:18:07.960Z,99948.36
2019-04-26T02:21:19.687Z,99952.68
2019-04-26T02:23:57.062Z,99938.00
2019-04-26T02:26:39.615Z,99917.39
2019-04-26T02:29:13.138Z,99923.75
2019-04-26T02:31:44.978Z,99915.15
2019-04-26T02:34:15.047Z,99918.13
2019-04-26T02:36:57.198Z,99948.36
2019-04-26T02:39:22.133Z,99958.33
2019-04-26T02:41:57.207Z,99961.09
2019-04-26T02:44:37.102Z,99965.08
2019-04-26T02:47:35.067Z,99970.84
2019-04-26T02:50:09.485Z,99965.88
2019-04-26T02:52:44.956Z,99970.52
2019-04-26T02:55:31.575Z,99965.66
2019-04-26T02:58:01.675Z,99951.62
2019-04-26T03:00:32.152Z,99962.98
2019-04-26T03:03:04.724Z,99968.95
2019-04-26T03:05:37.640Z,99974.09
2019-04-26T03:08:20.124Z,99985.58
2019-04-26T03:11:10.258Z,99988.42
2019-04-26T03:13:48.624Z,99984.01
2019-04-26T03:16:37.402Z,99977.53
2019-04-26T03:19:20.082Z,99976.86
2019-04-26T03:22:33.180Z,99969.04
2019-04-26T03:25:47.097Z,99965.20
2019-04-26T03:28:28.041Z,99969.23
2019-04-26T03:31:15.190Z,99969.28
2019-04-26T03:34:02.525Z,99973.01
2019-04-26T03:37:20.257Z,99973.97
2019-04-26T03:40:09.173Z,99985.33
2019-04-26T03:43:18.567Z,99986.86
2019-04-26T03:46:08.611Z,99981.20
2019-04-26T03:49:02.964Z,99983.73
2019-04-26T03:51:55.221Z,99978.08
2019-04-26T03:54:27.518Z,99971.80
2019-04-26T03:57:24.615Z,99968.52
2019-04-26T04:00:15.225Z,99969.23
2019-04-26T04:03:26.763Z,99967.67
2019-04-26T04:05:57.344Z,99980.70
2019-04-26T04:08:38.387Z,99986.17
2019-04-26T04:11:11.548Z,99984.84
2019-04-26T04:13:53.489Z,99988.02
2019-04-26T04:16:43.674Z,99995.77
2019-04-26T04:19:24.792Z,99968.35
2019-04-26T04:22:01.673Z,100004.94
2019-04-26T04:24:48.726Z,99997.19
2019-04-26T04:27:34.041Z,100008.03
2019-04-26T04:30:14.693Z,99991.93
2019-04-26T04:32:59.088Z,99993.05
2019-04-26T04:35:30.994Z,100001.73
2019-04-26T04:38:09.588Z,100009.59
2019-04-26T04:41:28.344Z,100009.28
2019-04-26T04:44:23.333Z,100006.61
2019-04-26T04:47:25.319Z,100013.45
2019-04-26T04:50:04.101Z,100003.22
2019-04-26T04:52:50.082Z,99995.04
2019-04-26T04:55:43.464Z,100010.83
2019-04-26T04:58:17.879Z,100024.59
2019-04-26T05:01:15.401Z,100027.70
2019-04-26T05:03:58.811Z,100048.22
2019-04-26T05:07:08.623Z,100042.03
2019-04-26T05:09:49.539Z,100034.80
2019-04-26T05:12:25.917Z,100021.70
2019-04-26T05:15:44.568Z,100030.08
2019-04-26T05:18:25.050Z,100035.12
2019-04-26T05:21:05.105Z,100038.84
2019-04-26T05:24:24.389Z,100052.56
2019-04-26T05:27:25.899Z,100057.92
2019-04-26T05:30:50.677Z,100062.81
2019-04-26T05:33:36.180Z,100070.52
2019-04-26T05:36:41.471Z,100079.72
2019-04-26T05:39:27.391Z,100085.39
2019-04-26T05:42:55.821Z,100088.28
2019-04-26T05:46:08.146Z,100099.19
2019-04-26T05:49:15.660Z,100104.03
2019-04-26T05:52:28.509Z,100101.05
2019-04-26T05:55:30.789Z,100105.88
2019-04-26T05:58:21.080Z,100120.54
2019-04-26T06:01:33.515Z,100128.26
2019-04-26T06:04:32.951Z,100134.73
2019-04-26T06:07:23.260Z,100140.52
2019-04-26T06:10:29.267Z,100150.27
2019-04-26T06:13:30.460Z,100152.64
2019-04-26T06:16:14.877Z,100157.77
2019-04-26T06:19:12.175Z,100158.44
2019-04-26T06:22:08.499Z,100146.57
2019-04-26T06:24:46.690Z,100130.80
2019-04-26T06:27:48.127Z,100122.84
2019-04-26T06:30:25.976Z,100131.19
2019-04-26T06:33:34.048Z,100134.70
2019-04-26T06:36:09.206Z,100136.27
2019-04-26T06:39:15.752Z,100133.70
2019-04-26T06:42:13.052Z,100136.60
2019-04-26T06:46:09.350Z,100128.80
2019-04-26T06:49:13.017Z,100128.80
2019-04-26T06:51:48.331Z,100127.33
2019-04-26T06:54:26.436Z,100138.68
2019-04-26T06:57:31.030Z,100136.49
2019-04-26T07:00:18.474Z,100136.63
2019-04-26T07:03:15.837Z,100135.07
2019-04-26T07:05:47.538Z,100150.55
2019-04-26T07:08:57.162Z,100147.14
2019-04-26T07:12:07.932Z,100148.48
2019-04-26T07:15:27.732Z,100158.39
2019-04-26T07:18:06.943Z,100155.40
2019-04-26T07:20:49.242Z,100160.64
2019-04-26T07:24:11.205Z,100161.50
2019-04-26T07:27:19.519Z,100158.48
2019-04-26T07:30:32.028Z,100170.16
2019-04-26T07:33:44.795Z,100172.84
2019-04-26T07:36:49.475Z,100199.15
2019-04-26T07:39:40.634Z,100194.60
2019-04-26T07:42:56.304Z,100198.94
2019-04-26T07:46:02.905Z,100196.68
2019-04-26T07:48:56.288Z,100193.69
2019-04-26T07:52:06.502Z,100197.02
2019-04-26T07:55:11.031Z,100201.55
2019-04-26T07:58:20.152Z,100201.02
2019-04-26T08:01:10.543Z,100205.34
2019-04-26T08:03:51.909Z,100207.48
2019-04-26T08:06:54.480Z,100194.49
2019-04-26T08:09:27.546Z,100197.40
2019-04-26T08:12:07.835Z,100181.70
2019-04-26T08:15:00.286Z,100186.84
2019-04-26T08:17:50.737Z,100207.73
2019-04-26T08:20:35.826Z,100210.11
2019-04-26T08:23:16.086Z,100208.34
2019-04-26T08:25:40.992Z,100206.91
2019-04-26T08:28:14.183Z,100205.94
2019-04-26T08:30:48.706Z,100215.35
2019-04-26T08:33:23.853Z,100223.53
2019-04-26T08:35:56.343Z,100230.55
2019-04-26T08:38:27.067Z,100222.28
2019-04-26T08:41:00.489Z,100234.36
2019-04-26T08:43:48.526Z,100237.44
2019-04-26T08:46:56.958Z,100248.81
2019-04-26T08:49:44.389Z,100251.06
2019-04-26T08:52:16.371Z,100249.33
2019-04-26T08:54:55.197Z,100253.45
2019-04-26T08:57:27.975Z,100252.90
2019-04-26T09:00:00.199Z,100265.39
2019-04-26T09:02:49.951Z,100263.84
2019-04-26T09:05:51.455Z,100272.70
2019-04-26T09:08:25.184Z,100283.43
2019-04-26T09:10:56.788Z,100278.67
2019-04-26T09:13:28.778Z,100285.73
2019-04-26T09:16:13.716Z,100283.58
2019-04-26T09:18:48.035Z,100289.06
2019-04-26T09:21:17.486Z,100280.41
2019-04-26T09:24:15.810Z,100282.14
2019-04-26T09:26:55.159Z,100276.69
2019-04-26T09:29:32.136Z,100274.63
2019-04-26T09:32:09.074Z,100277.70
2019-04-26T09:34:41.376Z,100281.11
2019-04-26T09:37:09.105Z,100285.88
2019-04-26T09:39:41.606Z,100285.36
2019-04-26T09:42:16.324Z,100284.31
2019-04-26T09:44:58.599Z,100288.34
2019-04-26T09:47:32.532Z,100294.41
2019-04-26T09:50:11.357Z,100282.62
2019-04-26T09:52:45.555Z,100301.39
2019-04-26T09:55:14.836Z,100292.06
2019-04-26T09:57:43.999Z,100283.63
2019-04-26T10:00:16.125Z,100280.42
2019-04-26T10:02:45.211Z,100283.45
2019-04-26T10:05:17.675Z,100280.87
2019-04-26T10:07:45.356Z,100290.66
2019-04-26T10:10:22.640Z,100285.17
2019-04-26T10:13:04.772Z,100286.08
2019-04-26T10:15:58.124Z,100295.23
2019-04-26T10:18:25.953Z,100297.07
2019-04-26T10:20:54.891Z,100302.48
2019-04-26T10:23:23.906Z,100302.26
2019-04-26T10:25:53.646Z,100301.84
2019-04-26T10:28:22.903Z,100304.09
2019-04-26T10:30:51.892Z,100316.28
2019-04-26T10:33:20.986Z,100303.70
2019-04-26T10:35:52.645Z,100311.80
2019-04-26T10:38:23.714Z,100312.71
2019-04-26T10:40:51.332Z,100317.98
2019-04-26T10:43:20.321Z,100318.83
2019-04-26T10:45:53.608Z,100318.86
2019-04-26T10:48:22.952Z,100312.85
2019-04-26T10:50:50.740Z,100310.60
2019-04-26T10:53:37.580Z,100307.91
2019-04-26T10:56:31.579Z,100305.05
2019-04-26T10:59:28.407Z,100298.45
2019-04-26T11:01:57.479Z,100294.35
2019-04-26T11:04:26.589Z,100292.37
2019-04-26T11:06:58.031Z,100290.73
2019-04-26T11:09:26.527Z,100296.81
2019-04-26T11:11:55.538Z,100278.02
2019-04-26T11:14:24.529Z,100288.33
2019-04-26T11:16:53.942Z,100283.23
2019-04-26T11:19:22.967Z,100285.94
2019-04-26T11:21:54.826Z,100290.48
2019-04-26T11:24:22.667Z,100297.05
2019-04-26T11:26:51.927Z,100290.48
2019-04-26T11:29:21.056Z,100288.55
2019-04-26T11:31:50.094Z,100283.73
2019-04-26T11:34:23.326Z,100286.16
2019-04-26T11:36:49.882Z,100289.27
2019-04-26T11:39:19.043Z,100289.66
2019-04-26T11:41:47.976Z,100284.49
2019-04-26T11:44:16.998Z,100289.19
2019-04-26T11:46:46.069Z,100282.39
2019-04-26T11:49:15.185Z,100285.97
2019-04-26T11:51:44.286Z,100291.98
2019-04-26T11:54:23.951Z,100293.17
2019-04-26T11:56:52.787Z,100290.25
2019-04-26T11:59:21.803Z,100304.36
2019-04-26T12:01:50.846Z,100310.28
2019-04-26T12:04:38.812Z,100302.42
2019-04-26T12:07:19.881Z,100307.72
2019-04-26T12:09:50.237Z,100307.10
2019-04-26T12:12:19.266Z,100298.10
2019-04-26T12:14:48.074Z,100311.79
2019-04-26T12:17:16.989Z,100311.92
2019-04-26T12:19:48.189Z,100313.12
2019-04-26T12:22:16.679Z,100319.95
2019-04-26T12:24:45.691Z,100317.92
2019-04-26T12:27:14.760Z,100326.02
2019-04-26T12:29:44.283Z,100333.65
2019-04-26T12:32:17.104Z,100331.13
2019-04-26T12:34:45.378Z,100330.43
2019-04-26T12:37:19.868Z,100341.60
2019-04-26T12:39:45.174Z,100346.59
2019-04-26T12:42:14.976Z,100348.13
2019-04-26T12:45:02.967Z,100346.48
2019-04-26T12:47:41.106Z,100297.86
2019-04-26T12:50:10.142Z,100352.48
2019-04-26T12:52:39.097Z,100357.50
2019-04-26T12:55:08.540Z,100359.33
2019-04-26T12:57:40.760Z,100361.20
2019-04-26T13:00:08.293Z,100343.77
2019-04-26T13:02:37.238Z,100342.73
2019-04-26T13:05:06.862Z,100334.59
2019-04-26T13:07:39.001Z,100337.19
2019-04-26T13:10:31.302Z,100331.05
2019-04-26T13:13:32.976Z,100326.89
2019-04-26T13:16:35.956Z,100333.92
2019-04-26T13:19:04.971Z,100328.32
2019-04-26T13:21:37.231Z,100331.36
2019-04-26T13:24:06.205Z,100331.82
2019-04-26T13:26:37.592Z,100334.06
2019-04-26T13:29:07.510Z,100335.61
2019-04-26T13:31:36.422Z,100334.64
2019-04-26T13:34:05.450Z,100335.30
2019-04-26T13:36:34.431Z,100335.89
2019-04-26T13:39:05.480Z,100333.88
2019-04-26T13:41:34.902Z,100333.49
2019-04-26T13:44:05.899Z,100326.61
2019-04-26T13:47:03.625Z,100322.32
2019-04-26T13:49:38.444Z,100287.59
2019-04-26T13:52:07.505Z,100324.17
2019-04-26T13:54:36.480Z,100339.31
2019-04-26T13:57:06.061Z,100341.20
2019-04-26T13:59:36.180Z,100341.02
2019-04-26T14:02:11.463Z,100330.66
2019-04-26T14:04:37.271Z,100346.96
2019-04-26T14:07:06.523Z,100328.72
2019-04-26T14:09:35.390Z,100328.94
2019-04-26T14:12:17.824Z,100329.52
2019-04-26T14:14:35.701Z,100325.97
2019-04-26T14:17:04.770Z,100339.39
2019-04-26T14:19:33.991Z,100331.62
2019-04-26T14:22:06.704Z,100340.22
2019-04-26T14:24:39.227Z,100335.58
2019-04-26T14:27:14.951Z,100342.63
2019-04-26T14:29:42.971Z,100335.06
2019-04-26T14:32:11.985Z,100344.65
2019-04-26T14:34:42.017Z,100341.25
2019-04-26T14:37:15.635Z,100345.91
2019-04-26T14:39:50.062Z,100346.88
2019-04-26T14:42:13.025Z,100335.69
2019-04-26T14:44:49.244Z,100331.22
2019-04-26T14:47:17.487Z,100325.20
2019-04-26T14:49:43.794Z,100333.36
2019-04-26T14:52:12.849Z,100344.73
2019-04-26T14:54:45.945Z,100348.69
2019-04-26T14:57:21.522Z,100349.41
2019-04-26T14:59:56.695Z,100327.52
2019-04-26T15:02:41.599Z,100335.63
2019-04-26T15:05:16.810Z,100336.69
2019-04-26T15:07:51.326Z,100336.73
2019-04-26T15:10:18.610Z,100332.67
2019-04-26T15:12:52.684Z,100333.20
2019-04-26T15:15:18.274Z,100160.67
2019-04-26T15:17:49.210Z,100336.55
2019-04-26T15:20:20.920Z,100336.78
2019-04-26T15:22:50.149Z,100354.45
2019-04-26T15:25:19.142Z,100354.30
2019-04-26T15:27:48.048Z,100366.20
2019-04-26T15:30:17.123Z,100375.58
2019-04-26T15:32:46.147Z,100376.03
2019-04-26T15:35:17.504Z,100377.79
2019-04-26T15:37:45.741Z,100366.58
2019-04-26T15:40:31.963Z,100371.77
2019-04-26T15:43:14.869Z,100367.52
2019-04-26T15:45:53.422Z,100363.48
2019-04-26T15:48:33.883Z,100364.23
2019-04-26T15:51:02.966Z,100361.95
2019-04-26T15:53:33.180Z,100350.77
2019-04-26T15:56:02.587Z,100342.34
2019-04-26T15:58:31.772Z,100349.60
2019-04-26T16:01:02.696Z,100348.36
2019-04-26T16:03:32.785Z,100340.59
2019-04-26T16:06:06.998Z,100340.75
2019-04-26T16:08:34.025Z,100343.09
2019-04-26T16:11:03.200Z,100332.02
2019-04-26T16:13:32.362Z,100348.31
2019-04-26T16:16:02.078Z,100349.91
2019-04-26T16:18:32.378Z,100346.54
2019-04-26T16:21:01.932Z,100347.01
2019-04-26T16:23:39.421Z,100345.61
2019-04-26T16:26:02.801Z,100349.06
2019-04-26T16:29:05.925Z,100349.06
2019-04-26T16:31:46.035Z,100349.97
2019-04-26T16:34:15.588Z,100351.95
2019-04-26T16:36:45.383Z,100354.31
2019-04-26T16:39:14.483Z,100360.59
2019-04-26T16:41:43.322Z,100361.54
2019-04-26T16:44:13.034Z,100360.94
2019-04-26T16:46:43.895Z,100359.45
2019-04-26T16:49:14.141Z,100357.17
2019-04-26T16:51:43.707Z,100356.33
2019-04-26T16:54:21.052Z,100353.52
2019-04-26T16:56:43.971Z,100353.33
2019-04-26T16:59:14.214Z,100363.38
2019-04-26T17:01:47.323Z,100363.80
2019-04-26T17:04:19.604Z,100359.22
2019-04-26T17:06:46.363Z,100361.23
2019-04-26T17:09:15.439Z,100365.47
2019-04-26T17:11:44.381Z,100361.12
2019-04-26T17:14:13.839Z,100368.20
2019-04-26T17:16:44.457Z,100364.51
2019-04-26T17:19:13.844Z,100371.55
2019-04-26T17:21:49.694Z,100371.78
2019-04-26T17:24:46.274Z,100367.30
2019-04-26T17:27:15.489Z,100367.15
2019-04-26T17:29:44.439Z,100372.49
2019-04-26T17:32:17.149Z,100373.48
2019-04-26T17:34:44.169Z,100379.11
2019-04-26T17:37:17.344Z,100376.03
2019-04-26T17:39:47.525Z,100378.65
2019-04-26T17:42:14.751Z,100373.92
2019-04-26T17:44:43.706Z,100370.64
2019-04-26T17:47:12.637Z,100376.09
2019-04-26T17:49:43.774Z,100375.59
2019-04-26T17:52:12.166Z,100373.04
2019-04-26T17:54:47.006Z,100371.33
2019-04-26T17:57:14.328Z,100373.94
2019-04-26T17:59:47.763Z,100378.98
2019-04-26T18:02:31.259Z,100376.95
2019-04-26T18:04:44.000Z,100368.87
2019-04-26T18:07:34.679Z,100376.81
2019-04-26T18:09:46.666Z,100379.13
2019-04-26T18:12:14.426Z,100386.39
2019-04-26T18:14:43.456Z,100387.74
2019-04-26T18:17:25.051Z,100391.49
2019-04-26T18:20:08.212Z,100395.67
2019-04-26T18:22:45.166Z,100399.94
2019-04-26T18:25:14.658Z,100405.78
2019-04-26T18:27:43.854Z,100412.45
2019-04-26T18:30:14.351Z,100418.36
2019-04-26T18:32:47.667Z,100419.91
2019-04-26T18:35:16.748Z,100413.84
2019-04-26T18:37:45.177Z,100419.54
2019-04-26T18:40:14.577Z,100417.84
2019-04-26T18:42:43.575Z,100423.96
2019-04-26T18:45:13.886Z,100426.84
2019-04-26T18:47:43.755Z,100424.98
2019-04-26T18:50:15.413Z,100432.91
2019-04-26T18:52:56.537Z,100438.35
2019-04-26T18:55:30.155Z,100436.56
2019-04-26T18:58:03.446Z,100441.06
2019-04-26T19:00:35.038Z,100438.72
2019-04-26T19:03:04.650Z,100442.53
2019-04-26T19:05:33.900Z,100449.19
2019-04-26T19:08:04.956Z,100448.40
2019-04-26T19:10:34.361Z,100448.03
2019-04-26T19:13:13.395Z,100456.44
2019-04-26T19:15:55.139Z,100450.91
2019-04-26T19:18:37.909Z,100448.30
2019-04-26T19:21:22.872Z,100452.71
2019-04-26T19:23:53.040Z,100449.65
2019-04-26T19:26:32.451Z,100452.67
2019-04-26T19:28:53.198Z,100447.73
2019-04-26T19:31:25.455Z,100447.33
2019-04-26T19:33:55.897Z,100446.58
2019-04-26T19:36:26.188Z,100450.16
2019-04-26T19:38:53.858Z,100449.28
2019-04-26T19:41:22.838Z,100448.81
2019-04-26T19:43:53.380Z,100449.37
2019-04-26T19:46:38.665Z,100447.09
2019-04-26T19:49:42.807Z,100445.14
2019-04-26T19:52:22.173Z,100442.56
2019-04-26T19:54:55.646Z,100444.84
2019-04-26T19:57:33.339Z,100434.32
2019-04-26T20:00:03.704Z,100443.84
2019-04-26T20:02:35.912Z,100420.72
2019-04-26T20:05:06.691Z,100450.81
2019-04-26T20:07:33.592Z,100462.32
2019-04-26T20:10:05.034Z,100462.20
2019-04-26T20:12:37.902Z,100432.55
2019-04-26T20:15:04.103Z,100465.63
2019-04-26T20:17:32.973Z,100485.19
2019-04-26T20:20:02.129Z,100516.30
2019-04-26T20:22:32.096Z,100511.44
2019-04-26T20:25:02.464Z,100518.50
2019-04-26T20:27:32.332Z,100516.02
2019-04-26T20:30:02.356Z,100525.02
2019-04-26T20:32:37.241Z,100521.18
2019-04-26T20:35:13.363Z,100511.50
2019-04-26T20:37:45.224Z,100498.03
2019-04-26T20:40:20.105Z,100503.25
2019-04-26T20:42:44.272Z,100503.47
2019-04-26T20:45:16.721Z,100504.45
2019-04-26T20:47:46.793Z,100504.70
2019-04-26T20:50:14.724Z,100501.77
2019-04-26T20:52:45.391Z,100508.52
2019-04-26T20:55:15.183Z,100502.02
2019-04-26T20:57:44.795Z,100500.48
2019-04-26T21:00:15.272Z,100495.33
2019-04-26T21:02:44.305Z,100495.58
2019-04-26T21:05:14.843Z,100491.78
2019-04-26T21:07:49.118Z,100490.44
2019-04-26T21:10:21.708Z,100496.45
2019-04-26T21:12:47.438Z,100484.86
2019-04-26T21:15:20.223Z,100491.30
2019-04-26T21:17:47.386Z,100493.20
2019-04-26T21:20:16.266Z,100486.20
2019-04-26T21:22:45.454Z,100488.88
2019-04-26T21:25:27.671Z,100491.30
2019-04-26T21:28:02.466Z,100494.09
2019-04-26T21:30:38.588Z,100491.56
2019-04-26T21:33:20.420Z,100495.80
2019-04-26T21:35:57.602Z,100485.59
2019-04-26T21:38:37.211Z,100499.96
2019-04-26T21:41:11.697Z,100506.05
2019-04-26T21:43:41.447Z,100499.60
2019-04-26T21:46:14.547Z,100507.89
2019-04-26T21:48:41.970Z,100511.30
2019-04-26T21:51:14.495Z,100502.94
2019-04-26T21:53:45.148Z,100502.84
2019-04-26T21:56:14.558Z,100506.48
2019-04-26T21:58:45.876Z,100506.62
2019-04-26T22:01:19.299Z,100506.44
2019-04-26T22:03:54.350Z,100498.51
2019-04-26T22:06:20.050Z,100501.59
2019-04-26T22:08:58.711Z,100494.18
2019-04-26T22:11:25.575Z,100490.58
2019-04-26T22:14:00.087Z,100486.45
2019-04-26T22:16:38.192Z,100485.11
2019-04-26T22:19:32.306Z,100482.83
2019-04-26T22:22:19.563Z,100489.28
2019-04-26T22:24:49.054Z,100482.27
2019-04-26T22:27:21.749Z,100488.73
2019-04-26T22:29:51.880Z,100485.42
2019-04-26T22:32:19.378Z,100490.06
2019-04-26T22:34:48.282Z,100496.97
2019-04-26T22:37:29.147Z,100498.42
2019-04-26T22:39:48.190Z,100496.88
2019-04-26T22:42:17.802Z,100504.09
2019-04-26T22:45:10.906Z,100501.34
2019-04-26T22:48:01.141Z,100505.05
2019-04-26T22:50:30.083Z,100499.70
2019-04-26T22:52:59.060Z,100503.00
2019-04-26T22:55:27.864Z,100509.70
2019-04-26T22:57:56.786Z,100511.41
2019-04-26T23:00:29.697Z,100510.79
2019-04-26T23:03:03.647Z,100508.36
2019-04-26T23:05:30.631Z,100494.04
2019-04-26T23:08:01.031Z,100495.98
2019-04-26T23:10:35.277Z,100495.80
2019-04-26T23:13:13.312Z,100492.18
2019-04-26T23:16:00.572Z,100487.34
2019-04-26T23:18:50.552Z,100489.45
2019-04-26T23:21:25.416Z,100485.03
2019-04-26T23:23:54.337Z,100486.97
2019-04-26T23:26:23.300Z,100478.94
2019-04-26T23:28:53.506Z,100478.94
2019-04-26T23:31:23.731Z,100495.17
2019-04-26T23:33:53.916Z,100494.89
2019-04-26T23:36:24.065Z,100501.59
2019-04-26T23:38:53.314Z,100491.41
2019-04-26T23:41:23.584Z,100489.28
2019-04-26T23:43:56.813Z,100486.28
2019-04-26T23:46:25.913Z,100484.95
2019-04-26T23:48:53.928Z,100488.26
2019-04-26T23:51:23.821Z,100490.08
2019-04-26T23:53:56.345Z,100486.46
2019-04-26T23:56:25.336Z,100492.70
2019-04-26T23:58:54.378Z,100482.64
